Aviation Digital Data Service (ADDS)

Output produced by METARs form (1326 UTC 23 May 2022)
found at http://www.aviationweather.gov/metar/data/
 
LFRN 231300Z AUTO 26007KT 200V290 9999 SCT031 BKN072 BKN100 19/12 Q1005 TEMPO 25015G25KT 2000 SHRA BKN012 BKN020CB
TAF LFRN 231100Z 2312/2412 30005KT 9999 BKN020 
     TEMPO 2312/2322 4000 SHRA BKN020TCU 
     PROB40 
     TEMPO 2314/2319 25015G25KT 2000 SHRA BKN012 BKN020CB 
     PROB30 
     TEMPO 2314/2318 TSRA 
     TEMPO 2409/2412 4000 SHRA BKN020TCU